Time;durP1;ratioP1;P1;durP2;ratioP2;P2;SDS_P1;SDS_P2;PMS_P1;PMS_P2;Temp;Humidity;BMP_temperature;BMP_pressure;BME280_temperature;BME280_humidity;BME280_pressure;Samples;Min_cycle;Max_cycle;Signal;HPM_P1;HPM_P2
2021/09/24 00:00:26;;;;;;;24.70;3.58;;;12.30;99.90;;;;;;5010690;28;20057;-82
2021/09/24 00:02:53;;;;;;;31.63;3.63;;;12.20;99.90;;;;;;5012808;28;20132;-83
2021/09/24 00:05:21;;;;;;;24.30;3.10;;;12.30;99.90;;;;;;5008954;28;20045;-83
2021/09/24 00:07:48;;;;;;;22.88;3.35;;;12.20;99.90;;;;;;5002905;28;20077;-83
2021/09/24 00:10:18;;;;;;;20.88;3.30;;;12.20;99.90;;;;;;5011452;28;20145;-83
2021/09/24 00:12:45;;;;;;;20.65;3.50;;;12.20;99.90;;;;;;5006495;28;20085;-83
2021/09/24 00:15:16;;;;;;;28.48;4.32;;;12.20;99.90;;;;;;5047358;28;20391;-84
2021/09/24 00:17:43;;;;;;;33.28;3.13;;;12.10;99.90;;;;;;5020096;28;20080;-84
2021/09/24 00:20:11;;;;;;;39.53;4.25;;;12.30;99.90;;;;;;5026422;28;20046;-84
2021/09/24 00:22:38;;;;;;;29.17;3.58;;;12.10;99.90;;;;;;5008083;28;20123;-83
2021/09/24 00:25:06;;;;;;;27.02;4.25;;;12.20;99.90;;;;;;5031383;28;20507;-85
2021/09/24 00:27:33;;;;;;;34.58;3.58;;;12.10;99.90;;;;;;5007169;28;20054;-83
2021/09/24 00:30:00;;;;;;;33.78;3.60;;;12.10;99.90;;;;;;5012958;28;20049;-83
2021/09/24 00:32:27;;;;;;;27.52;3.85;;;12.00;99.90;;;;;;5013703;28;20136;-82
2021/09/24 00:34:53;;;;;;;31.17;4.53;;;12.10;99.90;;;;;;5013273;28;20053;-82
2021/09/24 00:37:20;;;;;;;31.30;3.22;;;12.10;99.90;;;;;;5012159;28;20073;-84
2021/09/24 00:39:49;;;;;;;23.42;2.90;;;12.10;99.90;;;;;;5018910;28;20544;-84
2021/09/24 00:42:18;;;;;;;23.45;2.75;;;12.10;99.90;;;;;;5010718;28;20106;-84
2021/09/24 00:44:50;;;;;;;20.08;3.20;;;12.20;99.90;;;;;;5034930;28;20049;-84
2021/09/24 00:47:19;;;;;;;23.45;3.10;;;12.20;99.90;;;;;;5010159;28;20098;-83
2021/09/24 00:49:46;;;;;;;25.40;3.72;;;12.10;99.90;;;;;;5014119;28;20084;-84
2021/09/24 00:52:13;;;;;;;18.90;3.17;;;12.20;99.90;;;;;;5003608;28;20050;-84
2021/09/24 00:54:40;;;;;;;34.03;3.95;;;12.20;99.90;;;;;;5013398;28;20061;-83
2021/09/24 00:57:07;;;;;;;28.77;3.80;;;12.20;99.90;;;;;;5007209;28;20140;-84
2021/09/24 00:59:34;;;;;;;22.08;2.30;;;12.30;99.90;;;;;;5004704;28;20089;-83
2021/09/24 01:02:01;;;;;;;23.20;3.60;;;12.10;99.90;;;;;;5012046;28;20103;-82
2021/09/24 01:04:29;;;;;;;24.30;3.13;;;12.20;99.90;;;;;;5031193;28;20482;-83
2021/09/24 01:06:56;;;;;;;25.52;3.42;;;12.10;99.90;;;;;;5008521;28;20112;-84
2021/09/24 01:09:24;;;;;;;34.03;3.92;;;12.20;99.90;;;;;;5010658;28;20135;-83
2021/09/24 01:11:51;;;;;;;15.38;3.08;;;12.10;99.90;;;;;;5028002;28;20041;-83
2021/09/24 01:14:18;;;;;;;27.75;3.50;;;12.10;99.90;;;;;;5025824;28;20792;-84
2021/09/24 01:16:45;;;;;;;26.38;2.85;;;12.20;99.90;;;;;;5017110;28;20096;-85
2021/09/24 01:19:12;;;;;;;21.75;3.65;;;12.10;99.90;;;;;;4999329;28;20107;-83
2021/09/24 01:21:42;;;;;;;26.65;2.70;;;12.10;99.90;;;;;;5022170;28;20116;-83
2021/09/24 01:24:16;;;;;;;25.77;2.65;;;12.10;99.90;;;;;;5008733;28;20048;-86
2021/09/24 01:26:47;;;;;;;32.45;2.78;;;12.10;99.90;;;;;;5006356;28;20483;-83
2021/09/24 01:29:14;;;;;;;25.55;2.45;;;12.10;99.90;;;;;;5023092;28;20721;-83
2021/09/24 01:31:41;;;;;;;31.33;3.10;;;12.20;99.90;;;;;;5013198;28;20154;-82
2021/09/24 01:34:08;;;;;;;24.10;3.25;;;12.20;99.90;;;;;;5013081;28;20057;-83
2021/09/24 01:36:35;;;;;;;19.52;2.33;;;12.10;99.90;;;;;;5006934;28;20180;-82
2021/09/24 01:39:10;;;;;;;23.48;2.25;;;12.10;99.90;;;;;;5020682;28;20049;-84
2021/09/24 01:41:41;;;;;;;21.70;3.40;;;12.10;99.90;;;;;;5013076;28;20136;-84
2021/09/24 01:44:08;;;;;;;23.23;2.65;;;12.20;99.90;;;;;;5018030;28;20096;-85
2021/09/24 01:47:02;;;;;;;22.38;2.92;;;12.10;99.90;;;;;;5034405;28;20049;-83
2021/09/24 01:49:28;;;;;;;26.60;3.40;;;12.20;99.90;;;;;;5009467;28;20077;-82
2021/09/24 01:51:55;;;;;;;22.00;3.17;;;12.20;99.90;;;;;;5013602;28;20046;-84
2021/09/24 01:54:22;;;;;;;18.23;3.10;;;12.20;99.90;;;;;;5017134;28;20058;-84
2021/09/24 01:56:49;;;;;;;24.42;3.05;;;12.20;99.90;;;;;;5017071;28;20061;-84
2021/09/24 01:59:16;;;;;;;20.55;3.40;;;12.10;99.90;;;;;;5007572;28;20095;-84
2021/09/24 02:01:42;;;;;;;22.52;2.90;;;12.10;99.90;;;;;;5012840;28;20053;-84
2021/09/24 02:04:13;;;;;;;31.08;3.67;;;12.30;99.90;;;;;;5029444;28;20049;-84
2021/09/24 02:06:40;;;;;;;18.75;2.53;;;12.20;99.90;;;;;;5017029;28;20099;-83
2021/09/24 02:09:06;;;;;;;21.55;2.67;;;12.10;99.90;;;;;;5037215;28;20096;-83
2021/09/24 02:11:33;;;;;;;16.63;2.60;;;12.10;99.90;;;;;;5031709;28;20096;-83
2021/09/24 02:14:00;;;;;;;18.52;2.55;;;12.10;99.90;;;;;;5011176;28;20379;-83
2021/09/24 02:16:27;;;;;;;14.75;2.80;;;12.10;99.90;;;;;;5016122;28;20053;-82
2021/09/24 02:18:54;;;;;;;21.38;2.75;;;12.10;99.90;;;;;;5007405;28;20053;-85
2021/09/24 02:21:21;;;;;;;14.75;2.55;;;12.10;99.90;;;;;;5002153;28;20517;-83
2021/09/24 02:23:48;;;;;;;29.55;2.65;;;12.10;99.90;;;;;;5017197;28;20111;-85
2021/09/24 02:26:15;;;;;;;25.38;2.40;;;12.20;99.90;;;;;;5014027;28;20068;-83
2021/09/24 02:28:58;;;;;;;18.08;2.00;;;12.20;99.90;;;;;;5012823;28;20150;-83
2021/09/24 02:31:24;;;;;;;26.27;3.05;;;12.30;99.90;;;;;;5013986;28;20096;-83
2021/09/24 02:33:51;;;;;;;24.02;3.33;;;12.20;99.90;;;;;;5018084;28;20065;-83
2021/09/24 02:36:19;;;;;;;13.00;2.22;;;12.30;99.90;;;;;;5007738;28;20046;-83
2021/09/24 02:38:46;;;;;;;19.80;2.53;;;12.30;99.90;;;;;;5002405;28;20139;-83
2021/09/24 02:41:14;;;;;;;27.13;3.80;;;12.30;99.90;;;;;;5028154;28;20084;-84
2021/09/24 02:43:41;;;;;;;15.05;2.28;;;12.30;99.90;;;;;;5015966;28;20112;-84
2021/09/24 02:46:08;;;;;;;24.58;3.10;;;12.20;99.90;;;;;;5033392;28;20087;-85
2021/09/24 02:48:34;;;;;;;20.75;4.35;;;12.30;99.90;;;;;;5016059;28;20049;-84
2021/09/24 02:51:01;;;;;;;19.70;2.88;;;12.30;99.90;;;;;;5014527;28;20541;-85
2021/09/24 02:53:28;;;;;;;16.50;2.67;;;12.40;99.90;;;;;;5028461;28;20180;-83
2021/09/24 02:55:55;;;;;;;17.15;2.70;;;12.30;99.90;;;;;;5015626;28;20128;-83
2021/09/24 02:58:22;;;;;;;22.08;2.85;;;12.30;99.90;;;;;;5019143;28;20053;-84
2021/09/24 03:00:51;;;;;;;25.15;3.60;;;12.20;99.90;;;;;;5029468;28;20042;-85
2021/09/24 03:03:18;;;;;;;20.33;3.38;;;12.10;99.90;;;;;;5014148;28;20041;-84
2021/09/24 03:05:45;;;;;;;17.35;1.95;;;12.10;99.90;;;;;;5013926;28;20050;-83
2021/09/24 03:08:12;;;;;;;20.77;2.92;;;12.10;99.90;;;;;;5012620;28;20090;-83
2021/09/24 03:10:38;;;;;;;19.27;2.75;;;12.00;99.90;;;;;;5008144;28;20456;-82
2021/09/24 03:13:05;;;;;;;19.98;2.40;;;11.90;99.90;;;;;;5009378;28;20045;-85
2021/09/24 03:15:32;;;;;;;19.35;2.85;;;11.90;99.90;;;;;;5015869;28;20103;-85
2021/09/24 03:17:59;;;;;;;17.15;2.17;;;12.10;99.90;;;;;;5023253;28;20491;-84
2021/09/24 03:20:28;;;;;;;24.75;2.97;;;12.00;99.90;;;;;;4997695;28;20077;-83
2021/09/24 03:22:55;;;;;;;27.02;3.17;;;12.10;99.90;;;;;;5005593;28;20133;-83
2021/09/24 03:25:23;;;;;;;30.45;4.93;;;12.10;99.90;;;;;;4995208;28;20547;-82
2021/09/24 03:27:50;;;;;;;24.15;3.83;;;12.10;99.90;;;;;;5010359;28;20053;-83
2021/09/24 03:30:17;;;;;;;20.42;2.22;;;12.10;99.90;;;;;;5013506;28;20071;-83
2021/09/24 03:32:44;;;;;;;23.05;2.55;;;12.10;99.90;;;;;;5014299;28;20852;-83
2021/09/24 03:35:12;;;;;;;17.80;2.88;;;12.20;99.90;;;;;;5015260;28;20069;-82
2021/09/24 03:37:39;;;;;;;25.73;3.05;;;12.20;99.90;;;;;;5014456;28;20053;-81
2021/09/24 03:40:06;;;;;;;29.83;3.92;;;12.20;99.90;;;;;;5014401;28;20072;-83
2021/09/24 03:42:33;;;;;;;35.75;3.55;;;12.20;99.90;;;;;;5007120;28;20073;-82
2021/09/24 03:45:00;;;;;;;23.98;2.67;;;12.30;99.90;;;;;;5050654;28;20757;-82
2021/09/24 03:47:27;;;;;;;30.58;3.70;;;12.30;99.90;;;;;;5003659;28;20057;-82
2021/09/24 03:49:53;;;;;;;20.25;3.53;;;12.20;99.90;;;;;;4995873;28;20125;-84
2021/09/24 03:52:20;;;;;;;30.58;2.90;;;12.30;99.90;;;;;;5015854;28;20081;-84
2021/09/24 03:54:48;;;;;;;24.00;2.42;;;12.20;99.90;;;;;;4995479;28;20050;-84
2021/09/24 03:57:14;;;;;;;25.58;2.78;;;12.30;99.90;;;;;;5010325;28;20130;-83
2021/09/24 03:59:43;;;;;;;27.50;2.92;;;12.20;99.90;;;;;;5012756;28;20561;-81
2021/09/24 04:02:10;;;;;;;17.50;2.40;;;12.20;99.90;;;;;;5014274;28;20128;-82
2021/09/24 04:04:37;;;;;;;35.60;3.92;;;12.20;99.90;;;;;;5013590;28;20374;-81
2021/09/24 04:07:09;;;;;;;20.85;2.33;;;12.20;99.90;;;;;;5026385;28;20071;-82
2021/09/24 04:09:36;;;;;;;25.52;2.22;;;12.20;99.90;;;;;;5026686;28;20072;-82
2021/09/24 04:12:04;;;;;;;15.50;1.67;;;12.10;99.90;;;;;;5015870;28;20077;-82
2021/09/24 04:14:31;;;;;;;24.48;2.58;;;12.10;99.90;;;;;;5019817;28;20050;-82
2021/09/24 04:16:57;;;;;;;23.63;2.47;;;12.00;99.90;;;;;;5001344;28;20666;-83
2021/09/24 04:19:32;;;;;;;24.95;2.38;;;12.10;99.90;;;;;;5010286;28;20045;-82
2021/09/24 04:21:59;;;;;;;25.23;2.15;;;11.90;99.90;;;;;;5024914;28;20085;-81
2021/09/24 04:24:26;;;;;;;17.67;2.47;;;11.80;99.90;;;;;;5013431;28;20072;-82
2021/09/24 04:26:52;;;;;;;10.57;1.67;;;11.70;99.90;;;;;;5031304;28;20069;-82
2021/09/24 04:29:19;;;;;;;22.05;1.85;;;11.70;99.90;;;;;;5013392;28;20054;-82
2021/09/24 04:31:46;;;;;;;17.48;2.55;;;11.70;99.90;;;;;;5005862;28;20129;-83
2021/09/24 04:34:13;;;;;;;16.25;2.55;;;11.80;99.90;;;;;;5013370;28;20104;-82
2021/09/24 04:36:40;;;;;;;24.77;3.30;;;11.70;99.90;;;;;;5016411;28;20087;-82
2021/09/24 04:39:07;;;;;;;26.08;2.88;;;11.60;99.90;;;;;;5021069;28;20179;-81
2021/09/24 04:41:36;;;;;;;22.33;3.05;;;11.60;99.90;;;;;;5015044;28;20091;-82
2021/09/24 04:44:03;;;;;;;54.92;25.70;;;11.60;99.90;;;;;;5015370;28;20072;-83
2021/09/24 04:46:30;;;;;;;31.38;10.60;;;11.60;99.90;;;;;;5001920;28;20054;-83
2021/09/24 04:48:57;;;;;;;16.48;3.22;;;11.60;99.90;;;;;;5002830;28;20539;-83
2021/09/24 04:51:24;;;;;;;30.75;12.18;;;11.50;99.90;;;;;;5003640;28;20049;-82
2021/09/24 04:53:51;;;;;;;27.33;3.00;;;11.50;99.90;;;;;;5013943;28;20085;-82
2021/09/24 04:56:23;;;;;;;19.48;2.50;;;11.40;99.90;;;;;;5015101;28;20136;-81
2021/09/24 04:58:52;;;;;;;19.73;2.47;;;11.40;99.90;;;;;;5000679;28;20069;-84
2021/09/24 05:01:18;;;;;;;22.60;2.95;;;11.40;99.90;;;;;;5009173;28;20065;-85
2021/09/24 05:03:51;;;;;;;24.60;2.13;;;11.30;99.90;;;;;;5010319;28;20041;-82
2021/09/24 05:06:18;;;;;;;21.67;2.45;;;11.30;99.90;;;;;;5012320;28;20128;-81
2021/09/24 05:08:45;;;;;;;14.38;2.17;;;11.20;99.90;;;;;;5025377;28;20072;-81
2021/09/24 05:11:12;;;;;;;11.23;2.00;;;11.20;99.90;;;;;;5004533;28;20494;-80
2021/09/24 05:13:39;;;;;;;25.30;2.13;;;11.20;99.90;;;;;;5005315;28;20149;-78
2021/09/24 05:16:07;;;;;;;34.35;3.42;;;11.10;99.90;;;;;;5029033;28;20084;-79
2021/09/24 05:18:34;;;;;;;22.75;2.05;;;11.20;99.90;;;;;;5027589;28;20136;-80
2021/09/24 05:21:00;;;;;;;28.83;2.65;;;11.10;99.90;;;;;;5022215;28;20458;-80
2021/09/24 05:23:29;;;;;;;21.23;2.72;;;11.10;99.90;;;;;;5007306;28;20148;-79
2021/09/24 05:25:56;;;;;;;30.27;2.38;;;11.10;99.90;;;;;;5027957;28;20077;-79
2021/09/24 05:28:23;;;;;;;26.33;2.25;;;11.10;99.90;;;;;;5006363;28;20072;-82
2021/09/24 05:30:50;;;;;;;10.30;2.05;;;11.10;99.90;;;;;;5009578;28;20718;-83
2021/09/24 05:33:17;;;;;;;18.73;2.70;;;11.00;99.90;;;;;;5007374;28;20042;-81
2021/09/24 05:35:50;;;;;;;22.05;2.15;;;11.00;99.90;;;;;;5007530;28;20489;-83
2021/09/24 05:38:19;;;;;;;15.80;2.00;;;11.10;99.90;;;;;;5014275;28;20049;-83
2021/09/24 05:40:46;;;;;;;20.98;2.83;;;11.00;99.90;;;;;;5026349;28;20053;-83
2021/09/24 05:43:14;;;;;;;22.88;2.60;;;11.10;99.90;;;;;;5027143;28;20045;-85
2021/09/24 05:45:41;;;;;;;30.98;3.90;;;11.10;99.90;;;;;;5018406;28;20042;-86
2021/09/24 05:48:07;;;;;;;17.92;2.17;;;11.10;99.90;;;;;;5013230;28;20057;-85
2021/09/24 05:50:36;;;;;;;34.75;2.97;;;11.10;99.90;;;;;;5012900;28;20042;-82
2021/09/24 05:53:05;;;;;;;27.70;3.13;;;11.20;99.90;;;;;;5030312;28;20124;-82
2021/09/24 05:55:33;;;;;;;19.55;2.38;;;11.10;99.90;;;;;;5013258;28;20140;-81
2021/09/24 05:58:03;;;;;;;32.45;2.83;;;11.10;99.90;;;;;;5012722;28;20136;-81
2021/09/24 06:00:30;;;;;;;19.73;2.10;;;11.20;99.90;;;;;;5030738;28;20108;-81
2021/09/24 06:02:58;;;;;;;24.27;3.08;;;11.30;99.90;;;;;;4994255;28;20046;-81
2021/09/24 06:05:25;;;;;;;25.25;2.58;;;11.30;99.90;;;;;;4997387;28;20041;-80
2021/09/24 06:07:52;;;;;;;29.38;2.88;;;11.40;99.90;;;;;;5002264;28;20077;-80
2021/09/24 06:10:23;;;;;;;23.77;3.28;;;11.60;99.90;;;;;;4994254;28;20048;-79
2021/09/24 06:12:50;;;;;;;24.45;2.83;;;11.50;99.90;;;;;;5011081;28;20506;-81
2021/09/24 06:15:20;;;;;;;23.55;2.92;;;11.60;99.90;;;;;;5019011;28;20060;-81
2021/09/24 06:17:49;;;;;;;25.02;3.03;;;11.60;99.90;;;;;;5002334;28;20057;-80
2021/09/24 06:20:17;;;;;;;26.35;3.08;;;11.60;99.90;;;;;;4999211;28;20089;-80
2021/09/24 06:22:46;;;;;;;25.25;4.03;;;11.70;99.90;;;;;;5020990;28;20578;-80
2021/09/24 06:25:14;;;;;;;27.00;3.53;;;11.70;99.90;;;;;;5005457;28;20849;-81
2021/09/24 06:27:41;;;;;;;20.35;3.55;;;11.80;99.90;;;;;;5007799;28;20045;-80
2021/09/24 06:30:12;;;;;;;21.77;3.40;;;11.90;99.90;;;;;;5019984;28;20080;-81
2021/09/24 06:32:40;;;;;;;24.23;2.97;;;12.10;99.90;;;;;;5000965;28;20193;-81
2021/09/24 06:35:08;;;;;;;26.27;3.42;;;12.40;99.90;;;;;;5015695;28;20092;-81
2021/09/24 06:37:34;;;;;;;17.42;2.03;;;12.50;99.90;;;;;;4999843;28;20734;-81
2021/09/24 06:40:03;;;;;;;15.27;2.22;;;12.70;99.90;;;;;;5017857;28;20045;-81
2021/09/24 06:42:30;;;;;;;37.88;3.78;;;13.20;99.90;;;;;;4999109;28;20140;-81
2021/09/24 06:44:58;;;;;;;33.45;3.33;;;13.40;99.90;;;;;;5001476;28;20077;-81
2021/09/24 06:47:26;;;;;;;21.33;3.25;;;13.50;99.90;;;;;;5000394;28;20041;-81
2021/09/24 06:49:52;;;;;;;25.42;3.60;;;13.80;99.90;;;;;;5000058;28;20080;-81
2021/09/24 06:52:19;;;;;;;23.58;3.13;;;14.30;99.90;;;;;;5017648;28;20860;-81
2021/09/24 06:54:46;;;;;;;32.22;3.55;;;14.80;99.90;;;;;;4995704;28;20084;-81
2021/09/24 06:57:13;;;;;;;22.40;2.65;;;14.60;99.90;;;;;;4998529;28;20144;-82
2021/09/24 06:59:40;;;;;;;24.83;3.25;;;14.50;99.90;;;;;;5000384;28;20053;-82
2021/09/24 07:02:08;;;;;;;21.67;3.03;;;14.80;99.90;;;;;;5017616;28;20076;-81
2021/09/24 07:04:36;;;;;;;27.45;3.38;;;15.50;99.90;;;;;;4998440;28;20061;-82
2021/09/24 07:07:03;;;;;;;27.77;3.90;;;16.50;99.90;;;;;;5000228;28;20119;-82
2021/09/24 07:09:29;;;;;;;25.67;3.83;;;17.60;99.90;;;;;;5017678;28;21177;-81
2021/09/24 07:11:56;;;;;;;26.75;3.92;;;17.80;99.90;;;;;;4999400;28;20050;-81
2021/09/24 07:14:23;;;;;;;23.70;3.80;;;17.10;99.90;;;;;;5001768;28;20102;-81
2021/09/24 07:16:50;;;;;;;27.08;3.58;;;16.70;99.90;;;;;;5019667;28;20056;-81
2021/09/24 07:19:17;;;;;;;29.38;3.50;;;17.10;99.90;;;;;;5000313;28;20081;-82
2021/09/24 07:21:44;;;;;;;20.15;2.90;;;18.00;99.90;;;;;;5002273;28;20045;-82
2021/09/24 07:24:11;;;;;;;21.98;2.92;;;18.00;99.90;;;;;;5004905;28;20135;-81
2021/09/24 07:26:40;;;;;;;19.92;2.50;;;17.60;99.90;;;;;;5005281;28;20152;-82
2021/09/24 07:29:07;;;;;;;22.73;3.20;;;17.50;99.90;;;;;;5020696;28;20132;-82
2021/09/24 07:31:34;;;;;;;23.58;2.83;;;16.20;99.90;;;;;;5021770;28;20073;-81
2021/09/24 07:34:00;;;;;;;22.90;2.92;;;15.90;99.90;;;;;;5003738;28;20046;-82
2021/09/24 07:36:28;;;;;;;27.08;2.63;;;16.10;99.90;;;;;;5021252;28;20062;-82
2021/09/24 07:38:55;;;;;;;19.45;3.30;;;17.60;99.90;;;;;;5003050;28;20460;-81
2021/09/24 07:41:23;;;;;;;18.50;2.97;;;18.50;99.90;;;;;;5002801;28;20053;-85
2021/09/24 07:43:52;;;;;;;15.85;3.88;;;19.10;99.90;;;;;;5020488;28;20434;-83
2021/09/24 07:46:22;;;;;;;23.08;2.72;;;19.00;99.90;;;;;;4998975;28;20050;-84
2021/09/24 07:48:49;;;;;;;22.35;3.08;;;19.30;99.90;;;;;;5017904;28;20128;-80
2021/09/24 07:51:17;;;;;;;22.23;3.33;;;18.80;99.90;;;;;;5019491;28;20170;-79
2021/09/24 07:53:44;;;;;;;19.83;3.83;;;19.00;99.90;;;;;;5019033;28;20514;-82
2021/09/24 07:56:11;;;;;;;19.65;3.38;;;19.60;99.90;;;;;;5003341;28;20061;-78
2021/09/24 07:58:39;;;;;;;18.58;2.50;;;20.30;99.90;;;;;;5017532;28;20145;-79
2021/09/24 08:01:10;;;;;;;19.27;3.08;;;20.30;99.90;;;;;;4999409;28;20049;-78
2021/09/24 08:03:38;;;;;;;21.20;3.13;;;20.50;99.90;;;;;;5014693;28;20060;-78
2021/09/24 08:06:05;;;;;;;17.33;3.20;;;18.90;99.90;;;;;;4999340;28;20498;-78
2021/09/24 08:08:32;;;;;;;27.10;3.13;;;19.40;99.90;;;;;;5000319;28;20137;-78
2021/09/24 08:11:00;;;;;;;21.75;2.90;;;17.70;99.90;;;;;;5003174;28;20042;-78
2021/09/24 08:13:27;;;;;;;23.77;3.35;;;16.40;99.90;;;;;;5017510;28;20490;-77
2021/09/24 08:15:55;;;;;;;34.38;4.03;;;15.90;99.90;;;;;;5000039;28;20104;-76
2021/09/24 08:18:23;;;;;;;29.90;3.53;;;15.60;99.90;;;;;;5016235;28;20140;-82
2021/09/24 08:20:51;;;;;;;19.95;3.22;;;15.50;99.90;;;;;;5005573;28;20148;-81
2021/09/24 08:23:19;;;;;;;26.60;3.08;;;15.60;99.90;;;;;;5000589;28;20132;-83
2021/09/24 08:25:46;;;;;;;19.08;3.30;;;15.60;99.90;;;;;;5002753;28;20049;-80
2021/09/24 08:28:14;;;;;;;18.23;2.90;;;16.50;99.90;;;;;;5003110;28;20946;-81
2021/09/24 08:30:41;;;;;;;27.17;3.42;;;16.10;99.90;;;;;;5023062;28;20052;-79
2021/09/24 08:33:08;;;;;;;40.53;3.50;;;16.00;99.90;;;;;;5004692;28;20115;-81
2021/09/24 08:35:35;;;;;;;19.48;2.75;;;15.80;99.90;;;;;;5003718;28;20076;-77
2021/09/24 08:38:03;;;;;;;25.20;3.83;;;16.60;99.90;;;;;;5001696;28;20111;-78
2021/09/24 08:40:33;;;;;;;20.45;2.92;;;16.40;99.90;;;;;;5020095;28;20136;-79
2021/09/24 08:43:01;;;;;;;21.58;3.47;;;15.90;99.90;;;;;;5001450;28;20129;-78
2021/09/24 08:45:31;;;;;;;24.88;2.70;;;15.60;99.90;;;;;;5019612;28;20136;-78
2021/09/24 08:48:04;;;;;;;31.63;3.63;;;15.30;99.90;;;;;;5019865;28;20901;-79
2021/09/24 08:50:35;;;;;;;22.58;2.88;;;15.40;99.90;;;;;;5002785;28;20145;-78
2021/09/24 08:53:03;;;;;;;24.67;3.10;;;15.30;99.90;;;;;;5022280;28;20594;-79
2021/09/24 08:55:31;;;;;;;28.30;3.58;;;15.40;99.90;;;;;;5004058;28;20687;-78
2021/09/24 08:57:58;;;;;;;24.55;3.17;;;15.30;99.90;;;;;;5020012;28;20088;-79
2021/09/24 09:00:26;;;;;;;28.33;3.63;;;15.50;99.90;;;;;;5018266;28;20053;-78
2021/09/24 09:02:56;;;;;;;20.52;3.13;;;15.40;99.90;;;;;;5002254;28;20095;-79
2021/09/24 09:05:27;;;;;;;25.60;3.13;;;15.40;99.90;;;;;;5019311;28;20041;-85
2021/09/24 09:08:20;;;;;;;24.77;3.28;;;15.10;99.90;;;;;;5008703;28;20107;-85
2021/09/24 09:11:00;;;;;;;26.80;2.92;;;15.00;99.90;;;;;;4998239;28;20128;-86
2021/09/24 09:13:30;;;;;;;27.80;4.22;;;15.10;99.90;;;;;;5003646;28;20064;-84
2021/09/24 09:16:12;;;;;;;32.95;3.45;;;15.30;99.90;;;;;;4997755;28;20080;-86
2021/09/24 09:18:42;;;;;;;31.30;4.13;;;15.10;99.90;;;;;;5002627;28;20053;-86
2021/09/24 09:21:12;;;;;;;31.98;3.40;;;15.30;99.90;;;;;;5003172;28;20100;-85
2021/09/24 09:23:41;;;;;;;22.88;2.90;;;15.50;99.90;;;;;;5000905;28;20085;-85
2021/09/24 09:26:10;;;;;;;16.50;2.55;;;15.40;99.90;;;;;;5001440;28;20131;-87
2021/09/24 09:28:52;;;;;;;19.52;3.53;;;15.40;99.90;;;;;;4998011;28;20120;-85
2021/09/24 09:31:27;;;;;;;17.00;2.45;;;15.60;99.90;;;;;;4999037;28;20108;-86
2021/09/24 09:34:00;;;;;;;22.60;3.35;;;15.50;99.90;;;;;;5021750;28;20095;-86
2021/09/24 09:36:34;;;;;;;25.55;4.38;;;15.40;99.90;;;;;;5021480;28;20101;-84
2021/09/24 09:39:29;;;;;;;21.10;2.80;;;15.90;99.90;;;;;;5004549;28;20057;-86
2021/09/24 09:41:57;;;;;;;24.40;3.30;;;16.20;99.90;;;;;;5001812;28;20045;-90
2021/09/24 09:44:27;;;;;;;20.15;3.22;;;16.30;99.90;;;;;;5003347;28;20057;-86
2021/09/24 09:46:54;;;;;;;22.45;3.08;;;16.30;99.90;;;;;;5020215;28;20048;-87
2021/09/24 09:49:25;;;;;;;27.42;3.08;;;16.60;99.90;;;;;;5004181;28;20053;-89
2021/09/24 09:52:07;;;;;;;21.67;2.85;;;16.90;99.90;;;;;;5018719;28;20045;-87
2021/09/24 09:54:34;;;;;;;26.38;3.28;;;17.20;99.90;;;;;;5018877;28;20049;-87
2021/09/24 09:57:19;;;;;;;25.02;3.40;;;17.10;99.90;;;;;;5023118;28;20046;-87
2021/09/24 09:59:51;;;;;;;24.98;3.63;;;17.30;99.90;;;;;;5015488;28;20045;-86
2021/09/24 10:02:31;;;;;;;35.88;3.80;;;16.70;99.90;;;;;;5015965;28;20536;-86
2021/09/24 10:05:01;;;;;;;37.03;4.13;;;16.60;99.90;;;;;;5014885;28;20045;-87
2021/09/24 10:07:36;;;;;;;29.23;3.45;;;16.30;99.90;;;;;;5012645;28;20053;-86
2021/09/24 10:10:08;;;;;;;25.73;3.83;;;16.70;99.90;;;;;;5021994;28;20068;-87
2021/09/24 10:12:37;;;;;;;20.95;3.70;;;17.30;99.90;;;;;;5015969;28;20049;-87
2021/09/24 10:15:05;;;;;;;28.27;4.60;;;17.60;99.90;;;;;;5012905;28;20037;-88
2021/09/24 10:17:32;;;;;;;22.15;3.10;;;17.80;99.90;;;;;;5013733;28;20081;-87
2021/09/24 10:19:59;;;;;;;31.63;4.03;;;17.40;99.90;;;;;;5011234;28;20061;-87
2021/09/24 10:22:27;;;;;;;24.25;3.35;;;16.90;99.90;;;;;;5009164;28;20080;-87
2021/09/24 10:24:55;;;;;;;22.45;3.30;;;16.70;99.90;;;;;;5011596;28;20568;-85
2021/09/24 10:27:35;;;;;;;29.77;4.93;;;16.90;99.90;;;;;;5013281;28;20045;-80
2021/09/24 10:30:12;;;;;;;32.35;4.32;;;17.00;99.90;;;;;;5021472;28;20512;-85
2021/09/24 10:32:56;;;;;;;26.60;4.10;;;16.60;99.90;;;;;;5013037;28;20084;-87
2021/09/24 10:35:51;;;;;;;14.57;2.72;;;16.30;99.90;;;;;;5015709;28;20049;-82
2021/09/24 10:38:23;;;;;;;29.25;3.53;;;16.10;99.90;;;;;;5013301;28;20076;-89
2021/09/24 10:40:58;;;;;;;28.70;3.33;;;16.10;99.90;;;;;;5020250;28;20049;-81
2021/09/24 10:43:24;;;;;;;19.13;3.00;;;16.20;99.90;;;;;;5016150;28;20064;-81
2021/09/24 10:45:51;;;;;;;19.08;2.78;;;16.00;99.90;;;;;;5017664;28;20494;-88
2021/09/24 10:48:24;;;;;;;19.50;3.85;;;15.80;99.90;;;;;;5031707;28;20042;-87
2021/09/24 10:51:03;;;;;;;22.95;3.33;;;16.00;99.90;;;;;;5010364;28;20095;-85
2021/09/24 10:53:42;;;;;;;36.42;3.25;;;16.10;99.90;;;;;;5010935;28;20060;-86
2021/09/24 10:56:09;;;;;;;17.52;2.90;;;16.00;99.90;;;;;;5012285;28;20450;-86
2021/09/24 10:58:41;;;;;;;22.42;4.10;;;15.90;99.90;;;;;;5012333;28;20128;-86
2021/09/24 11:01:28;;;;;;;25.52;3.25;;;16.10;99.90;;;;;;5006760;28;20053;-86
2021/09/24 11:04:10;;;;;;;21.10;2.80;;;16.00;99.90;;;;;;5013278;28;20076;-85
2021/09/24 11:06:37;;;;;;;20.83;3.38;;;15.70;99.90;;;;;;5012973;28;20037;-86
2021/09/24 11:09:06;;;;;;;16.02;3.28;;;15.70;99.90;;;;;;5011302;28;20089;-86
2021/09/24 11:11:35;;;;;;;26.52;3.28;;;15.50;99.90;;;;;;5017020;28;20083;-85
2021/09/24 11:14:34;;;;;;;22.50;3.50;;;15.50;99.90;;;;;;5029388;28;20045;-85
2021/09/24 11:17:03;;;;;;;18.77;3.63;;;15.50;99.90;;;;;;4989038;28;20049;-86
2021/09/24 11:19:34;;;;;;;18.80;3.20;;;15.40;99.90;;;;;;5015487;28;20103;-85
2021/09/24 11:22:21;;;;;;;23.73;3.10;;;15.40;99.90;;;;;;5014943;28;20053;-85
2021/09/24 11:25:09;;;;;;;15.75;2.55;;;15.40;99.90;;;;;;5017629;28;20073;-86
2021/09/24 11:27:44;;;;;;;19.60;3.08;;;15.40;99.90;;;;;;5015986;28;20719;-86
2021/09/24 11:30:23;;;;;;;18.95;2.90;;;15.50;99.90;;;;;;5032638;28;20042;-86
2021/09/24 11:33:00;;;;;;;20.58;3.15;;;15.30;99.90;;;;;;4995930;28;20081;-84
2021/09/24 11:35:41;;;;;;;14.65;3.10;;;15.30;99.90;;;;;;5013020;28;20400;-82
2021/09/24 11:38:19;;;;;;;14.73;3.20;;;15.10;99.90;;;;;;5009745;28;20054;-83
2021/09/24 11:40:52;;;;;;;19.13;2.97;;;15.30;99.90;;;;;;5019941;28;20084;-83
2021/09/24 11:43:39;;;;;;;10.77;3.13;;;15.20;99.90;;;;;;5017621;28;20056;-83
2021/09/24 11:46:25;;;;;;;7.85;3.08;;;15.40;99.90;;;;;;5026822;28;20081;-83
2021/09/24 11:48:53;;;;;;;23.00;3.67;;;15.40;99.90;;;;;;5015150;28;20053;-83
2021/09/24 11:51:22;;;;;;;17.40;4.72;;;15.30;99.90;;;;;;5014883;28;20096;-83
2021/09/24 11:53:57;;;;;;;18.55;4.78;;;15.40;99.90;;;;;;5015017;28;20092;-83
2021/09/24 11:56:34;;;;;;;19.55;4.45;;;15.50;99.90;;;;;;5032207;28;20054;-84
2021/09/24 11:59:09;;;;;;;13.13;4.05;;;15.40;99.90;;;;;;5014326;28;20121;-84
2021/09/24 12:01:37;;;;;;;13.73;4.47;;;15.60;99.90;;;;;;5014983;28;20056;-84
2021/09/24 12:04:04;;;;;;;18.73;4.18;;;15.70;99.90;;;;;;5031866;28;20324;-84
2021/09/24 12:06:34;;;;;;;14.48;4.72;;;15.70;99.90;;;;;;5014097;28;20136;-84
2021/09/24 12:09:11;;;;;;;11.70;4.70;;;15.70;99.90;;;;;;5022431;28;20052;-84
2021/09/24 12:11:45;;;;;;;21.80;5.15;;;15.60;99.90;;;;;;5013966;28;20624;-84
2021/09/24 12:14:13;;;;;;;19.95;5.45;;;15.70;99.90;;;;;;5024032;28;20485;-84
2021/09/24 12:16:41;;;;;;;22.67;5.90;;;15.70;99.90;;;;;;5026589;28;20136;-84
2021/09/24 12:19:37;;;;;;;12.52;5.28;;;15.80;99.90;;;;;;5013027;28;20052;-84
2021/09/24 12:22:09;;;;;;;15.25;5.63;;;15.70;99.90;;;;;;4994426;28;20077;-84
2021/09/24 12:24:39;;;;;;;22.35;5.75;;;15.80;99.90;;;;;;4995114;28;20081;-84
2021/09/24 12:27:13;;;;;;;17.08;5.35;;;15.90;99.90;;;;;;5013450;28;20045;-84
2021/09/24 12:29:42;;;;;;;12.37;6.07;;;16.00;99.90;;;;;;5013353;28;20929;-84
2021/09/24 12:32:21;;;;;;;12.65;5.85;;;16.00;99.90;;;;;;5013776;28;20292;-84
2021/09/24 12:35:01;;;;;;;18.25;6.55;;;16.20;99.90;;;;;;5014299;28;20498;-84
2021/09/24 12:37:32;;;;;;;19.95;5.30;;;16.10;99.90;;;;;;5013928;28;20140;-83
2021/09/24 12:40:02;;;;;;;18.50;6.40;;;16.20;99.90;;;;;;5018345;28;20072;-84
2021/09/24 12:42:35;;;;;;;24.60;5.85;;;16.30;99.90;;;;;;5013397;28;20049;-84
2021/09/24 12:45:05;;;;;;;16.13;5.30;;;16.30;99.90;;;;;;5047537;28;20103;-84
2021/09/24 12:47:34;;;;;;;11.90;5.10;;;16.50;99.90;;;;;;5014886;28;20056;-83